KMMK (Meriden Markham Municipal Airport)

 RUNWAY INFORMATION
Runway Number 18 Runway Length 3100 ft Runway Width 75 ft
Runway Elevation 103 ft Runway Displaced Threshold 0 ft Runway Surface Asphalt
Runway Number 36 Runway Length 3100 ft Runway Width 75 ft
Runway Elevation 99 ft Runway Displaced Threshold 0 ft Runway Surface Asphalt

  METAR AND TAF INFORMATION
METAR FOR KMMK
ADDS - METARS form results

(0702 UTC 20 April 2018)
Data provider: http://aviationweather.gov/adds/metars/
 
METAR text: KMMK 200653Z AUTO 31011KT 10SM CLR 02/M06 A2996 RMK AO2 SLP145 T00171056
Conditions at: KMMK (MERIDEN , CT, US) observed 0653 UTC 20 April 2018
Temperature: 1.7°C (35°F)
Dewpoint: -5.6°C (22°F) [RH = 58%]
Pressure (altimeter): 29.96 inches Hg (1014.6 mb)
[Sea-level pressure: 1014.5 mb]
Winds: from the NW (310 degrees) at 13 MPH (11 knots; 5.7 m/s)
Visibility: 10 or more miles (16+ km)
Ceiling: at least 12,000 feet AGL
Clouds: sky clear below 12,000 feet AGL
Weather: automated observation with no human augmentation;
there may or may not be significant weather present at this time

 AIRPORT FREQUENCIES
Type A/D Name APP/DEP Frequency 127.8 MHZ
Type ASOS Name ASOS Frequency 134.925 MHZ
Type CLD Name CLNC DEL Frequency 120.65 MHZ
Type UNIC Name CTAF/UNICO Frequency 123.05 MHZ

 NEARBY NAVIGATION AIDS



Powered by Virtual Airlines Manager